sensor_id;sensor_type;location;lat;lon;timestamp;temperature;humidity
1958;DHT22;979;51.076;13.748;2023-05-21T00:00:24;16.30;73.10
1958;DHT22;979;51.076;13.748;2023-05-21T00:02:52;16.30;73.40
1958;DHT22;979;51.076;13.748;2023-05-21T00:05:21;16.30;73.20
1958;DHT22;979;51.076;13.748;2023-05-21T00:07:49;16.20;73.40
1958;DHT22;979;51.076;13.748;2023-05-21T00:10:19;16.20;73.40
1958;DHT22;979;51.076;13.748;2023-05-21T00:12:49;16.20;73.50
1958;DHT22;979;51.076;13.748;2023-05-21T00:15:17;16.20;74.30
1958;DHT22;979;51.076;13.748;2023-05-21T00:17:46;16.20;73.60
1958;DHT22;979;51.076;13.748;2023-05-21T00:20:14;16.10;73.50
1958;DHT22;979;51.076;13.748;2023-05-21T00:22:43;16.10;73.70
1958;DHT22;979;51.076;13.748;2023-05-21T00:25:11;16.10;73.80
1958;DHT22;979;51.076;13.748;2023-05-21T00:27:40;16.10;73.90
1958;DHT22;979;51.076;13.748;2023-05-21T00:30:10;16.10;74.10
1958;DHT22;979;51.076;13.748;2023-05-21T00:32:41;16.00;73.90
1958;DHT22;979;51.076;13.748;2023-05-21T00:35:10;16.00;74.00
1958;DHT22;979;51.076;13.748;2023-05-21T00:37:40;15.90;74.00
1958;DHT22;979;51.076;13.748;2023-05-21T00:40:10;15.90;74.20
1958;DHT22;979;51.076;13.748;2023-05-21T00:42:38;15.90;74.20
1958;DHT22;979;51.076;13.748;2023-05-21T00:45:08;15.80;74.20
1958;DHT22;979;51.076;13.748;2023-05-21T00:47:37;15.80;74.20
1958;DHT22;979;51.076;13.748;2023-05-21T00:50:10;15.80;74.40
1958;DHT22;979;51.076;13.748;2023-05-21T00:52:42;15.80;74.90
1958;DHT22;979;51.076;13.748;2023-05-21T00:55:12;15.70;74.40
1958;DHT22;979;51.076;13.748;2023-05-21T00:57:41;15.70;74.50
1958;DHT22;979;51.076;13.748;2023-05-21T01:00:10;15.70;74.50
1958;DHT22;979;51.076;13.748;2023-05-21T01:02:42;15.70;74.40
1958;DHT22;979;51.076;13.748;2023-05-21T01:05:11;15.70;74.60
1958;DHT22;979;51.076;13.748;2023-05-21T01:07:41;15.70;74.60
1958;DHT22;979;51.076;13.748;2023-05-21T01:10:12;15.70;74.70
1958;DHT22;979;51.076;13.748;2023-05-21T01:12:43;15.70;74.60
1958;DHT22;979;51.076;13.748;2023-05-21T01:15:12;15.80;74.70
1958;DHT22;979;51.076;13.748;2023-05-21T01:17:43;15.70;74.60
1958;DHT22;979;51.076;13.748;2023-05-21T01:20:13;15.70;74.60
1958;DHT22;979;51.076;13.748;2023-05-21T01:22:51;15.70;74.60
1958;DHT22;979;51.076;13.748;2023-05-21T01:25:20;15.70;74.70
1958;DHT22;979;51.076;13.748;2023-05-21T01:27:51;15.70;74.80
1958;DHT22;979;51.076;13.748;2023-05-21T01:30:22;15.70;74.70
1958;DHT22;979;51.076;13.748;2023-05-21T01:32:57;15.70;74.70
1958;DHT22;979;51.076;13.748;2023-05-21T01:35:31;15.70;74.80
1958;DHT22;979;51.076;13.748;2023-05-21T01:38:08;15.70;74.80
1958;DHT22;979;51.076;13.748;2023-05-21T01:40:40;15.70;74.80
1958;DHT22;979;51.076;13.748;2023-05-21T01:43:12;15.70;74.80
1958;DHT22;979;51.076;13.748;2023-05-21T01:45:41;15.70;74.90
1958;DHT22;979;51.076;13.748;2023-05-21T01:48:12;15.70;74.80
1958;DHT22;979;51.076;13.748;2023-05-21T01:50:44;15.60;74.90
1958;DHT22;979;51.076;13.748;2023-05-21T01:53:14;15.60;74.90
1958;DHT22;979;51.076;13.748;2023-05-21T01:55:45;15.60;75.00
1958;DHT22;979;51.076;13.748;2023-05-21T01:58:14;15.60;75.00
1958;DHT22;979;51.076;13.748;2023-05-21T02:00:43;15.60;75.10
1958;DHT22;979;51.076;13.748;2023-05-21T02:03:14;15.60;75.10
1958;DHT22;979;51.076;13.748;2023-05-21T02:05:43;15.50;75.10
1958;DHT22;979;51.076;13.748;2023-05-21T02:08:12;15.50;75.10
1958;DHT22;979;51.076;13.748;2023-05-21T02:10:42;15.50;75.10
1958;DHT22;979;51.076;13.748;2023-05-21T02:13:11;15.50;75.30
1958;DHT22;979;51.076;13.748;2023-05-21T02:15:41;15.40;75.40
1958;DHT22;979;51.076;13.748;2023-05-21T02:18:11;15.40;75.30
1958;DHT22;979;51.076;13.748;2023-05-21T02:20:43;15.40;75.30
1958;DHT22;979;51.076;13.748;2023-05-21T02:23:11;15.40;75.50
1958;DHT22;979;51.076;13.748;2023-05-21T02:25:39;15.40;75.30
1958;DHT22;979;51.076;13.748;2023-05-21T02:28:09;15.40;75.40
1958;DHT22;979;51.076;13.748;2023-05-21T02:30:38;15.30;75.30
1958;DHT22;979;51.076;13.748;2023-05-21T02:33:07;15.40;75.60
1958;DHT22;979;51.076;13.748;2023-05-21T02:35:35;15.30;75.40
1958;DHT22;979;51.076;13.748;2023-05-21T02:38:04;15.30;75.60
1958;DHT22;979;51.076;13.748;2023-05-21T02:40:35;15.30;75.60
1958;DHT22;979;51.076;13.748;2023-05-21T02:43:05;15.30;75.60
1958;DHT22;979;51.076;13.748;2023-05-21T02:45:35;15.30;75.60
1958;DHT22;979;51.076;13.748;2023-05-21T02:48:04;15.30;75.60
1958;DHT22;979;51.076;13.748;2023-05-21T02:50:38;15.20;75.50
1958;DHT22;979;51.076;13.748;2023-05-21T02:53:06;15.20;75.60
1958;DHT22;979;51.076;13.748;2023-05-21T02:55:35;15.20;76.30
1958;DHT22;979;51.076;13.748;2023-05-21T02:58:04;15.20;75.70
1958;DHT22;979;51.076;13.748;2023-05-21T03:00:32;15.10;75.60
1958;DHT22;979;51.076;13.748;2023-05-21T03:03:02;15.10;75.60
1958;DHT22;979;51.076;13.748;2023-05-21T03:05:30;15.10;75.70
1958;DHT22;979;51.076;13.748;2023-05-21T03:07:59;15.10;75.70
1958;DHT22;979;51.076;13.748;2023-05-21T03:10:28;15.10;75.70
1958;DHT22;979;51.076;13.748;2023-05-21T03:12:56;15.10;75.70
1958;DHT22;979;51.076;13.748;2023-05-21T03:15:27;15.00;75.60
1958;DHT22;979;51.076;13.748;2023-05-21T03:17:59;15.00;75.60
1958;DHT22;979;51.076;13.748;2023-05-21T03:20:29;15.00;75.70
1958;DHT22;979;51.076;13.748;2023-05-21T03:22:58;15.00;75.90
1958;DHT22;979;51.076;13.748;2023-05-21T03:25:30;14.90;75.80
1958;DHT22;979;51.076;13.748;2023-05-21T03:27:58;15.00;76.00
1958;DHT22;979;51.076;13.748;2023-05-21T03:30:49;15.00;75.80
1958;DHT22;979;51.076;13.748;2023-05-21T03:33:38;15.00;76.50
1958;DHT22;979;51.076;13.748;2023-05-21T03:36:29;15.00;75.80
1958;DHT22;979;51.076;13.748;2023-05-21T03:38:57;15.00;75.80
1958;DHT22;979;51.076;13.748;2023-05-21T03:41:29;15.00;75.90
1958;DHT22;979;51.076;13.748;2023-05-21T03:44:05;15.00;76.00
1958;DHT22;979;51.076;13.748;2023-05-21T03:46:54;15.10;76.00
1958;DHT22;979;51.076;13.748;2023-05-21T03:49:34;15.10;75.90
1958;DHT22;979;51.076;13.748;2023-05-21T03:52:04;15.10;76.00
1958;DHT22;979;51.076;13.748;2023-05-21T03:54:33;15.10;75.80
1958;DHT22;979;51.076;13.748;2023-05-21T03:57:05;15.10;76.10
1958;DHT22;979;51.076;13.748;2023-05-21T03:59:34;15.10;75.90
1958;DHT22;979;51.076;13.748;2023-05-21T04:02:03;15.20;76.10
1958;DHT22;979;51.076;13.748;2023-05-21T04:04:32;15.20;76.10
1958;DHT22;979;51.076;13.748;2023-05-21T04:07:01;15.00;75.90
1958;DHT22;979;51.076;13.748;2023-05-21T04:09:35;15.20;76.30
1958;DHT22;979;51.076;13.748;2023-05-21T04:12:06;15.20;76.30
1958;DHT22;979;51.076;13.748;2023-05-21T04:14:36;15.30;76.30
1958;DHT22;979;51.076;13.748;2023-05-21T04:17:04;15.30;76.40
1958;DHT22;979;51.076;13.748;2023-05-21T04:19:32;15.40;76.50
1958;DHT22;979;51.076;13.748;2023-05-21T04:22:04;15.40;76.50
1958;DHT22;979;51.076;13.748;2023-05-21T04:24:32;15.50;76.50
1958;DHT22;979;51.076;13.748;2023-05-21T04:27:14;15.60;76.70
1958;DHT22;979;51.076;13.748;2023-05-21T04:29:43;15.60;76.50
1958;DHT22;979;51.076;13.748;2023-05-21T04:32:12;15.70;76.80
1958;DHT22;979;51.076;13.748;2023-05-21T04:34:41;15.70;76.70
1958;DHT22;979;51.076;13.748;2023-05-21T04:37:09;15.80;76.80
1958;DHT22;979;51.076;13.748;2023-05-21T04:39:38;15.90;77.00
1958;DHT22;979;51.076;13.748;2023-05-21T04:42:07;16.00;77.00
1958;DHT22;979;51.076;13.748;2023-05-21T04:44:38;16.10;77.10
1958;DHT22;979;51.076;13.748;2023-05-21T04:47:10;16.10;77.00
1958;DHT22;979;51.076;13.748;2023-05-21T04:49:41;16.20;76.90
1958;DHT22;979;51.076;13.748;2023-05-21T04:52:09;16.30;77.10
1958;DHT22;979;51.076;13.748;2023-05-21T04:54:38;16.40;77.00
1958;DHT22;979;51.076;13.748;2023-05-21T04:57:10;16.60;77.10
1958;DHT22;979;51.076;13.748;2023-05-21T04:59:40;16.70;77.10
1958;DHT22;979;51.076;13.748;2023-05-21T05:02:09;16.80;77.00
1958;DHT22;979;51.076;13.748;2023-05-21T05:04:40;17.00;77.00
1958;DHT22;979;51.076;13.748;2023-05-21T05:07:10;17.10;76.90
1958;DHT22;979;51.076;13.748;2023-05-21T05:09:40;17.30;76.80
1958;DHT22;979;51.076;13.748;2023-05-21T05:12:09;17.40;76.60
1958;DHT22;979;51.076;13.748;2023-05-21T05:14:37;17.50;76.40
1958;DHT22;979;51.076;13.748;2023-05-21T05:17:07;17.50;76.20
1958;DHT22;979;51.076;13.748;2023-05-21T05:19:36;17.80;76.40
1958;DHT22;979;51.076;13.748;2023-05-21T05:22:04;17.90;76.10
1958;DHT22;979;51.076;13.748;2023-05-21T05:24:33;18.00;76.10
1958;DHT22;979;51.076;13.748;2023-05-21T05:27:01;18.20;76.10
1958;DHT22;979;51.076;13.748;2023-05-21T05:29:30;18.30;75.90
1958;DHT22;979;51.076;13.748;2023-05-21T05:32:01;18.50;75.80
1958;DHT22;979;51.076;13.748;2023-05-21T05:34:30;18.60;75.70
1958;DHT22;979;51.076;13.748;2023-05-21T05:37:00;18.80;75.60
1958;DHT22;979;51.076;13.748;2023-05-21T05:39:30;19.00;75.50
1958;DHT22;979;51.076;13.748;2023-05-21T05:41:59;19.10;75.40
1958;DHT22;979;51.076;13.748;2023-05-21T05:44:27;19.30;75.20
1958;DHT22;979;51.076;13.748;2023-05-21T05:46:57;19.50;75.20
1958;DHT22;979;51.076;13.748;2023-05-21T05:49:26;19.70;75.10
1958;DHT22;979;51.076;13.748;2023-05-21T05:51:56;19.90;74.80
1958;DHT22;979;51.076;13.748;2023-05-21T05:54:25;20.00;74.60
1958;DHT22;979;51.076;13.748;2023-05-21T05:56:53;20.20;74.50
1958;DHT22;979;51.076;13.748;2023-05-21T05:59:22;20.40;74.30
1958;DHT22;979;51.076;13.748;2023-05-21T06:01:54;20.60;74.40
1958;DHT22;979;51.076;13.748;2023-05-21T06:04:23;20.70;73.90
1958;DHT22;979;51.076;13.748;2023-05-21T06:06:52;20.90;73.70
1958;DHT22;979;51.076;13.748;2023-05-21T06:09:21;21.10;73.80
1958;DHT22;979;51.076;13.748;2023-05-21T06:11:50;21.20;73.40
1958;DHT22;979;51.076;13.748;2023-05-21T06:14:18;21.40;73.10
1958;DHT22;979;51.076;13.748;2023-05-21T06:16:47;21.60;72.70
1958;DHT22;979;51.076;13.748;2023-05-21T06:19:16;21.70;72.50
1958;DHT22;979;51.076;13.748;2023-05-21T06:21:45;21.90;72.50
1958;DHT22;979;51.076;13.748;2023-05-21T06:24:13;22.00;72.40
1958;DHT22;979;51.076;13.748;2023-05-21T06:26:43;22.10;72.20
1958;DHT22;979;51.076;13.748;2023-05-21T06:29:13;22.30;72.10
1958;DHT22;979;51.076;13.748;2023-05-21T06:31:45;22.40;71.60
1958;DHT22;979;51.076;13.748;2023-05-21T06:34:15;22.50;71.50
1958;DHT22;979;51.076;13.748;2023-05-21T06:36:43;22.60;71.10
1958;DHT22;979;51.076;13.748;2023-05-21T06:39:12;22.70;71.10
1958;DHT22;979;51.076;13.748;2023-05-21T06:41:41;22.80;71.10
1958;DHT22;979;51.076;13.748;2023-05-21T06:44:29;22.90;70.90
1958;DHT22;979;51.076;13.748;2023-05-21T06:47:08;22.90;70.50
1958;DHT22;979;51.076;13.748;2023-05-21T06:49:38;23.00;70.50
1958;DHT22;979;51.076;13.748;2023-05-21T06:52:07;23.10;70.40
1958;DHT22;979;51.076;13.748;2023-05-21T06:54:35;23.20;70.50
1958;DHT22;979;51.076;13.748;2023-05-21T06:57:05;23.30;70.30
1958;DHT22;979;51.076;13.748;2023-05-21T06:59:35;23.30;70.20
1958;DHT22;979;51.076;13.748;2023-05-21T07:02:04;23.40;70.20
1958;DHT22;979;51.076;13.748;2023-05-21T07:04:32;23.50;70.30
1958;DHT22;979;51.076;13.748;2023-05-21T07:07:04;23.60;70.20
1958;DHT22;979;51.076;13.748;2023-05-21T07:09:35;23.70;70.20
1958;DHT22;979;51.076;13.748;2023-05-21T07:12:07;23.80;70.00
1958;DHT22;979;51.076;13.748;2023-05-21T07:14:38;23.90;69.80
1958;DHT22;979;51.076;13.748;2023-05-21T07:17:07;23.90;69.90
1958;DHT22;979;51.076;13.748;2023-05-21T07:19:35;24.00;69.80
1958;DHT22;979;51.076;13.748;2023-05-21T07:22:04;24.00;69.40
1958;DHT22;979;51.076;13.748;2023-05-21T07:24:33;24.00;69.40
1958;DHT22;979;51.076;13.748;2023-05-21T07:27:01;24.00;69.30
1958;DHT22;979;51.076;13.748;2023-05-21T07:29:45;24.10;69.20
1958;DHT22;979;51.076;13.748;2023-05-21T07:32:15;24.10;69.30
1958;DHT22;979;51.076;13.748;2023-05-21T07:34:43;24.10;69.30
1958;DHT22;979;51.076;13.748;2023-05-21T07:37:12;24.20;69.30
1958;DHT22;979;51.076;13.748;2023-05-21T07:39:41;24.20;69.10
1958;DHT22;979;51.076;13.748;2023-05-21T07:42:11;24.30;69.00
1958;DHT22;979;51.076;13.748;2023-05-21T07:44:41;24.30;68.90
1958;DHT22;979;51.076;13.748;2023-05-21T07:47:11;24.30;68.80
1958;DHT22;979;51.076;13.748;2023-05-21T07:49:39;24.40;68.60
1958;DHT22;979;51.076;13.748;2023-05-21T07:52:08;24.40;68.40
1958;DHT22;979;51.076;13.748;2023-05-21T07:54:36;24.40;68.30
1958;DHT22;979;51.076;13.748;2023-05-21T07:57:06;24.50;68.30
1958;DHT22;979;51.076;13.748;2023-05-21T08:00:02;24.70;68.40
1958;DHT22;979;51.076;13.748;2023-05-21T08:03:02;24.80;68.30
1958;DHT22;979;51.076;13.748;2023-05-21T08:05:37;24.70;67.60
1958;DHT22;979;51.076;13.748;2023-05-21T08:08:34;25.00;68.00
1958;DHT22;979;51.076;13.748;2023-05-21T08:11:37;25.10;67.60
1958;DHT22;979;51.076;13.748;2023-05-21T08:14:44;25.20;67.60
1958;DHT22;979;51.076;13.748;2023-05-21T08:17:52;25.10;66.90
1958;DHT22;979;51.076;13.748;2023-05-21T08:20:33;25.30;67.20
1958;DHT22;979;51.076;13.748;2023-05-21T08:23:15;25.30;67.00
1958;DHT22;979;51.076;13.748;2023-05-21T08:25:57;25.40;66.90
1958;DHT22;979;51.076;13.748;2023-05-21T08:28:40;25.50;66.80
1958;DHT22;979;51.076;13.748;2023-05-21T08:31:47;25.40;67.00
1958;DHT22;979;51.076;13.748;2023-05-21T08:35:06;25.70;66.00
1958;DHT22;979;51.076;13.748;2023-05-21T08:38:24;25.80;66.00
1958;DHT22;979;51.076;13.748;2023-05-21T08:45:33;25.90;65.20
1958;DHT22;979;51.076;13.748;2023-05-21T08:48:40;25.90;65.40
1958;DHT22;979;51.076;13.748;2023-05-21T08:51:37;25.90;64.70
1958;DHT22;979;51.076;13.748;2023-05-21T08:54:18;26.00;64.50
1958;DHT22;979;51.076;13.748;2023-05-21T08:56:58;26.00;64.80
1958;DHT22;979;51.076;13.748;2023-05-21T08:59:34;26.10;64.60
1958;DHT22;979;51.076;13.748;2023-05-21T09:02:33;26.10;64.40
1958;DHT22;979;51.076;13.748;2023-05-21T09:05:24;26.20;64.20
1958;DHT22;979;51.076;13.748;2023-05-21T09:08:11;26.20;64.00
1958;DHT22;979;51.076;13.748;2023-05-21T09:11:07;26.30;63.50
1958;DHT22;979;51.076;13.748;2023-05-21T09:13:58;26.20;63.80
1958;DHT22;979;51.076;13.748;2023-05-21T09:17:19;26.10;63.60
1958;DHT22;979;51.076;13.748;2023-05-21T09:23:42;26.70;63.70
1958;DHT22;979;51.076;13.748;2023-05-21T09:27:05;26.80;64.10
1958;DHT22;979;51.076;13.748;2023-05-21T09:29:53;27.00;63.10
1958;DHT22;979;51.076;13.748;2023-05-21T09:33:23;27.10;62.80
1958;DHT22;979;51.076;13.748;2023-05-21T09:36:48;27.30;62.00
1958;DHT22;979;51.076;13.748;2023-05-21T09:39:52;27.50;61.40
1958;DHT22;979;51.076;13.748;2023-05-21T09:42:53;27.50;61.90
1958;DHT22;979;51.076;13.748;2023-05-21T09:46:26;27.60;61.20
1958;DHT22;979;51.076;13.748;2023-05-21T09:49:26;27.90;61.10
1958;DHT22;979;51.076;13.748;2023-05-21T09:52:23;27.80;60.50
1958;DHT22;979;51.076;13.748;2023-05-21T09:54:55;28.10;60.70
1958;DHT22;979;51.076;13.748;2023-05-21T10:00:41;28.30;59.80
1958;DHT22;979;51.076;13.748;2023-05-21T10:03:37;28.30;59.30
1958;DHT22;979;51.076;13.748;2023-05-21T10:06:14;28.50;59.10
1958;DHT22;979;51.076;13.748;2023-05-21T10:09:01;28.60;59.40
1958;DHT22;979;51.076;13.748;2023-05-21T10:11:59;28.80;58.90
1958;DHT22;979;51.076;13.748;2023-05-21T10:14:44;28.90;58.90
1958;DHT22;979;51.076;13.748;2023-05-21T10:17:19;29.00;58.40
1958;DHT22;979;51.076;13.748;2023-05-21T10:20:05;29.00;58.20
1958;DHT22;979;51.076;13.748;2023-05-21T10:22:55;29.20;57.30
1958;DHT22;979;51.076;13.748;2023-05-21T10:25:49;29.10;57.40
1958;DHT22;979;51.076;13.748;2023-05-21T10:28:55;29.30;57.20
1958;DHT22;979;51.076;13.748;2023-05-21T10:43:49;29.60;59.00
1958;DHT22;979;51.076;13.748;2023-05-21T10:47:57;29.70;59.60
1958;DHT22;979;51.076;13.748;2023-05-21T10:51:17;29.80;57.50
1958;DHT22;979;51.076;13.748;2023-05-21T10:54:16;29.40;56.80
1958;DHT22;979;51.076;13.748;2023-05-21T10:57:45;29.30;56.40
1958;DHT22;979;51.076;13.748;2023-05-21T11:01:00;29.00;56.10
1958;DHT22;979;51.076;13.748;2023-05-21T11:03:45;29.00;56.40
1958;DHT22;979;51.076;13.748;2023-05-21T11:10:34;29.50;55.10
1958;DHT22;979;51.076;13.748;2023-05-21T11:13:43;29.70;54.40
1958;DHT22;979;51.076;13.748;2023-05-21T11:16:22;30.00;53.90
1958;DHT22;979;51.076;13.748;2023-05-21T11:19:13;30.10;53.40
1958;DHT22;979;51.076;13.748;2023-05-21T11:22:08;30.20;53.40
1958;DHT22;979;51.076;13.748;2023-05-21T11:24:41;30.30;53.20
1958;DHT22;979;51.076;13.748;2023-05-21T11:42:32;33.60;49.40
1958;DHT22;979;51.076;13.748;2023-05-21T11:45:16;34.20;49.30
1958;DHT22;979;51.076;13.748;2023-05-21T11:47:48;34.60;48.00
1958;DHT22;979;51.076;13.748;2023-05-21T11:50:24;35.20;47.60
1958;DHT22;979;51.076;13.748;2023-05-21T11:56:29;36.20;45.80
1958;DHT22;979;51.076;13.748;2023-05-21T11:59:18;36.20;45.50
1958;DHT22;979;51.076;13.748;2023-05-21T12:06:44;37.40;45.10
1958;DHT22;979;51.076;13.748;2023-05-21T12:15:35;39.40;43.70
1958;DHT22;979;51.076;13.748;2023-05-21T12:18:23;39.80;43.90
1958;DHT22;979;51.076;13.748;2023-05-21T12:25:40;39.40;43.00
1958;DHT22;979;51.076;13.748;2023-05-21T12:28:22;37.80;43.70
1958;DHT22;979;51.076;13.748;2023-05-21T12:31:05;36.70;44.20
1958;DHT22;979;51.076;13.748;2023-05-21T12:33:49;35.90;45.60
1958;DHT22;979;51.076;13.748;2023-05-21T12:41:12;35.30;45.60
1958;DHT22;979;51.076;13.748;2023-05-21T12:43:41;36.20;46.30
1958;DHT22;979;51.076;13.748;2023-05-21T12:46:22;36.80;46.60
1958;DHT22;979;51.076;13.748;2023-05-21T12:48:57;37.80;45.50
1958;DHT22;979;51.076;13.748;2023-05-21T12:51:40;38.40;45.50
1958;DHT22;979;51.076;13.748;2023-05-21T12:54:31;39.50;45.10
1958;DHT22;979;51.076;13.748;2023-05-21T12:57:07;40.20;43.40
1958;DHT22;979;51.076;13.748;2023-05-21T12:59:49;40.30;42.80
1958;DHT22;979;51.076;13.748;2023-05-21T13:02:38;41.00;43.10
1958;DHT22;979;51.076;13.748;2023-05-21T13:05:31;41.30;42.60
1958;DHT22;979;51.076;13.748;2023-05-21T13:08:16;41.20;41.90
1958;DHT22;979;51.076;13.748;2023-05-21T13:10:50;41.00;43.00
1958;DHT22;979;51.076;13.748;2023-05-21T13:14:23;40.80;42.80
1958;DHT22;979;51.076;13.748;2023-05-21T13:17:00;39.50;42.60
1958;DHT22;979;51.076;13.748;2023-05-21T13:19:36;38.20;43.60
1958;DHT22;979;51.076;13.748;2023-05-21T13:22:07;38.20;44.40
1958;DHT22;979;51.076;13.748;2023-05-21T13:24:41;38.40;44.60
1958;DHT22;979;51.076;13.748;2023-05-21T13:27:17;39.10;44.30
1958;DHT22;979;51.076;13.748;2023-05-21T13:29:49;39.40;44.20
1958;DHT22;979;51.076;13.748;2023-05-21T13:32:21;39.70;44.40
1958;DHT22;979;51.076;13.748;2023-05-21T13:35:02;40.10;44.30
1958;DHT22;979;51.076;13.748;2023-05-21T13:37:43;40.30;43.40
1958;DHT22;979;51.076;13.748;2023-05-21T13:40:14;39.80;43.00
1958;DHT22;979;51.076;13.748;2023-05-21T13:42:51;39.50;44.00
1958;DHT22;979;51.076;13.748;2023-05-21T13:45:30;38.80;43.60
1958;DHT22;979;51.076;13.748;2023-05-21T13:48:02;38.90;44.60
1958;DHT22;979;51.076;13.748;2023-05-21T13:50:35;39.20;44.90
1958;DHT22;979;51.076;13.748;2023-05-21T13:53:23;39.30;45.50
1958;DHT22;979;51.076;13.748;2023-05-21T13:55:59;40.10;44.90
1958;DHT22;979;51.076;13.748;2023-05-21T13:58:41;40.20;44.30
1958;DHT22;979;51.076;13.748;2023-05-21T14:01:28;40.30;42.60
1958;DHT22;979;51.076;13.748;2023-05-21T14:04:21;40.90;41.40
1958;DHT22;979;51.076;13.748;2023-05-21T14:07:09;40.60;40.40
1958;DHT22;979;51.076;13.748;2023-05-21T14:10:12;40.70;40.30
1958;DHT22;979;51.076;13.748;2023-05-21T14:12:53;39.70;40.00
1958;DHT22;979;51.076;13.748;2023-05-21T14:15:50;38.20;40.80
1958;DHT22;979;51.076;13.748;2023-05-21T14:18:26;37.10;41.40
1958;DHT22;979;51.076;13.748;2023-05-21T14:21:15;36.40;42.60
1958;DHT22;979;51.076;13.748;2023-05-21T14:24:03;37.10;43.30
1958;DHT22;979;51.076;13.748;2023-05-21T14:26:36;38.00;42.40
1958;DHT22;979;51.076;13.748;2023-05-21T14:29:17;38.60;42.20
1958;DHT22;979;51.076;13.748;2023-05-21T14:32:02;38.90;41.60
1958;DHT22;979;51.076;13.748;2023-05-21T14:34:46;39.30;41.70
1958;DHT22;979;51.076;13.748;2023-05-21T14:37:25;39.70;41.80
1958;DHT22;979;51.076;13.748;2023-05-21T14:40:22;39.90;41.70
1958;DHT22;979;51.076;13.748;2023-05-21T14:43:10;40.00;41.60
1958;DHT22;979;51.076;13.748;2023-05-21T14:46:03;39.80;41.10
1958;DHT22;979;51.076;13.748;2023-05-21T14:48:40;39.10;40.70
1958;DHT22;979;51.076;13.748;2023-05-21T14:51:31;38.10;41.70
1958;DHT22;979;51.076;13.748;2023-05-21T14:54:20;37.40;42.20
1958;DHT22;979;51.076;13.748;2023-05-21T14:57:12;37.30;42.30
1958;DHT22;979;51.076;13.748;2023-05-21T14:59:48;37.20;41.90
1958;DHT22;979;51.076;13.748;2023-05-21T15:02:26;36.70;42.80
1958;DHT22;979;51.076;13.748;2023-05-21T15:05:09;36.20;43.00
1958;DHT22;979;51.076;13.748;2023-05-21T15:08:04;35.60;43.40
1958;DHT22;979;51.076;13.748;2023-05-21T15:10:55;35.10;44.60
1958;DHT22;979;51.076;13.748;2023-05-21T15:13:47;35.00;45.00
1958;DHT22;979;51.076;13.748;2023-05-21T15:16:30;35.20;45.10
1958;DHT22;979;51.076;13.748;2023-05-21T15:19:23;35.20;44.80
1958;DHT22;979;51.076;13.748;2023-05-21T15:22:04;35.70;45.60
1958;DHT22;979;51.076;13.748;2023-05-21T15:24:42;35.40;45.20
1958;DHT22;979;51.076;13.748;2023-05-21T15:27:15;35.60;45.60
1958;DHT22;979;51.076;13.748;2023-05-21T15:29:56;35.90;45.90
1958;DHT22;979;51.076;13.748;2023-05-21T15:32:40;36.00;45.80
1958;DHT22;979;51.076;13.748;2023-05-21T15:35:14;36.10;45.80
1958;DHT22;979;51.076;13.748;2023-05-21T15:37:54;36.40;46.00
1958;DHT22;979;51.076;13.748;2023-05-21T15:40:39;36.60;44.80
1958;DHT22;979;51.076;13.748;2023-05-21T15:43:10;36.20;43.90
1958;DHT22;979;51.076;13.748;2023-05-21T15:45:53;36.10;44.60
1958;DHT22;979;51.076;13.748;2023-05-21T15:48:21;35.40;43.50
1958;DHT22;979;51.076;13.748;2023-05-21T15:50:57;35.50;44.20
1958;DHT22;979;51.076;13.748;2023-05-21T15:53:52;35.60;44.00
1958;DHT22;979;51.076;13.748;2023-05-21T15:56:31;35.10;43.90
1958;DHT22;979;51.076;13.748;2023-05-21T15:59:05;34.90;44.30
1958;DHT22;979;51.076;13.748;2023-05-21T16:01:40;34.80;44.40
1958;DHT22;979;51.076;13.748;2023-05-21T16:04:17;34.50;44.20
1958;DHT22;979;51.076;13.748;2023-05-21T16:06:58;34.50;45.30
1958;DHT22;979;51.076;13.748;2023-05-21T16:09:38;34.30;44.40
1958;DHT22;979;51.076;13.748;2023-05-21T16:12:18;34.20;45.00
1958;DHT22;979;51.076;13.748;2023-05-21T16:14:53;34.40;44.80
1958;DHT22;979;51.076;13.748;2023-05-21T16:17:38;34.60;45.10
1958;DHT22;979;51.076;13.748;2023-05-21T16:20:20;34.90;44.50
1958;DHT22;979;51.076;13.748;2023-05-21T16:23:08;35.30;44.60
1958;DHT22;979;51.076;13.748;2023-05-21T16:26:05;35.50;44.40
1958;DHT22;979;51.076;13.748;2023-05-21T16:29:26;35.70;43.70
1958;DHT22;979;51.076;13.748;2023-05-21T16:32:10;36.00;43.70
1958;DHT22;979;51.076;13.748;2023-05-21T16:38:57;35.90;43.10
1958;DHT22;979;51.076;13.748;2023-05-21T16:41:56;35.80;43.10
1958;DHT22;979;51.076;13.748;2023-05-21T16:44:57;35.50;43.50
1958;DHT22;979;51.076;13.748;2023-05-21T16:48:00;35.20;43.70
1958;DHT22;979;51.076;13.748;2023-05-21T16:51:20;35.30;44.10
1958;DHT22;979;51.076;13.748;2023-05-21T16:54:31;35.00;44.00
1958;DHT22;979;51.076;13.748;2023-05-21T16:57:15;35.30;44.30
1958;DHT22;979;51.076;13.748;2023-05-21T17:00:26;34.90;44.40
1958;DHT22;979;51.076;13.748;2023-05-21T17:03:59;34.70;43.40
1958;DHT22;979;51.076;13.748;2023-05-21T17:06:59;34.80;43.50
1958;DHT22;979;51.076;13.748;2023-05-21T17:09:51;34.50;43.30
1958;DHT22;979;51.076;13.748;2023-05-21T17:13:06;34.10;43.80
1958;DHT22;979;51.076;13.748;2023-05-21T17:15:54;33.60;43.70
1958;DHT22;979;51.076;13.748;2023-05-21T17:18:26;33.20;43.80
1958;DHT22;979;51.076;13.748;2023-05-21T17:21:11;32.90;44.00
1958;DHT22;979;51.076;13.748;2023-05-21T17:23:51;32.60;44.50
1958;DHT22;979;51.076;13.748;2023-05-21T17:26:30;32.20;44.60
1958;DHT22;979;51.076;13.748;2023-05-21T17:29:18;31.90;44.70
1958;DHT22;979;51.076;13.748;2023-05-21T17:31:53;31.50;45.20
1958;DHT22;979;51.076;13.748;2023-05-21T17:34:31;31.10;45.30
1958;DHT22;979;51.076;13.748;2023-05-21T17:37:37;30.90;46.20
1958;DHT22;979;51.076;13.748;2023-05-21T17:40:11;30.70;46.40
1958;DHT22;979;51.076;13.748;2023-05-21T17:42:41;30.60;46.60
1958;DHT22;979;51.076;13.748;2023-05-21T17:45:18;30.50;47.20
1958;DHT22;979;51.076;13.748;2023-05-21T17:48:10;30.30;47.50
1958;DHT22;979;51.076;13.748;2023-05-21T17:51:00;30.10;47.50
1958;DHT22;979;51.076;13.748;2023-05-21T17:53:52;29.80;48.00
1958;DHT22;979;51.076;13.748;2023-05-21T17:56:22;29.50;48.20
1958;DHT22;979;51.076;13.748;2023-05-21T17:58:57;29.30;48.80
1958;DHT22;979;51.076;13.748;2023-05-21T18:01:32;29.10;48.80
1958;DHT22;979;51.076;13.748;2023-05-21T18:04:01;28.90;48.80
1958;DHT22;979;51.076;13.748;2023-05-21T18:06:33;28.70;49.30
1958;DHT22;979;51.076;13.748;2023-05-21T18:09:06;28.50;49.70
1958;DHT22;979;51.076;13.748;2023-05-21T18:11:42;28.40;49.90
1958;DHT22;979;51.076;13.748;2023-05-21T18:14:13;28.00;50.50
1958;DHT22;979;51.076;13.748;2023-05-21T18:16:53;27.80;50.50
1958;DHT22;979;51.076;13.748;2023-05-21T18:19:46;27.70;50.70
1958;DHT22;979;51.076;13.748;2023-05-21T18:22:34;27.50;51.10
1958;DHT22;979;51.076;13.748;2023-05-21T18:25:16;27.20;51.20
1958;DHT22;979;51.076;13.748;2023-05-21T18:27:48;27.20;51.80
1958;DHT22;979;51.076;13.748;2023-05-21T18:30:21;27.00;52.20